createdAt,value
2018-12-30T00:00:31.081Z,9.00
2018-12-30T00:02:58.434Z,8.20
2018-12-30T00:03:58.446Z,9.10
2018-12-30T00:04:58.434Z,8.30
2018-12-30T00:06:02.435Z,9.10
2018-12-30T00:07:25.868Z,8.90
2018-12-30T00:07:58.941Z,8.90
2018-12-30T00:08:58.933Z,9.60
2018-12-30T00:09:58.933Z,9.20
2018-12-30T00:10:59.433Z,8.00
2018-12-30T00:12:04.893Z,8.70
2018-12-30T00:12:59.437Z,9.00
2018-12-30T00:13:59.432Z,8.60
2018-12-30T00:14:59.444Z,8.70
2018-12-30T00:16:00.885Z,8.10
2018-12-30T00:20:06.692Z,7.70
2018-12-30T00:21:09.060Z,7.70
2018-12-30T00:22:06.222Z,7.40
2018-12-30T00:23:10.658Z,7.50
2018-12-30T00:24:06.224Z,7.50
2018-12-30T00:25:06.231Z,6.50
2018-12-30T00:26:06.722Z,6.60
2018-12-30T00:27:06.721Z,6.50
2018-12-30T00:28:10.721Z,5.90
2018-12-30T00:29:06.720Z,5.90
2018-12-30T00:30:28.221Z,8.80
2018-12-30T00:31:08.155Z,5.70
2018-12-30T00:32:07.221Z,4.70
2018-12-30T00:33:07.222Z,5.10
2018-12-30T00:34:10.721Z,5.60
2018-12-30T00:35:28.729Z,3.80
2018-12-30T00:36:28.721Z,4.40
2018-12-30T00:37:07.723Z,4.40
2018-12-30T00:38:08.220Z,3.20
2018-12-30T00:39:32.719Z,3.80
2018-12-30T00:40:08.218Z,3.20
2018-12-30T00:41:08.225Z,3.00
2018-12-30T00:42:29.720Z,3.80
2018-12-30T00:43:29.721Z,4.10
2018-12-30T00:44:08.721Z,2.40
2018-12-30T00:45:33.720Z,3.60
2018-12-30T00:46:09.220Z,1.60
2018-12-30T00:47:09.220Z,2.20
2018-12-30T00:48:09.220Z,1.40
2018-12-30T00:49:09.220Z,4.00
2018-12-30T00:50:09.725Z,2.80
2018-12-30T00:51:33.733Z,2.00
2018-12-30T00:52:09.720Z,3.90
2018-12-30T00:53:09.721Z,2.10
2018-12-30T00:54:10.231Z,1.20
2018-12-30T00:55:10.219Z,1.90
2018-12-30T00:56:14.222Z,1.30
2018-12-30T00:57:31.220Z,2.10
2018-12-30T00:58:10.721Z,2.50
2018-12-30T01:02:37.997Z,2.20
2018-12-30T01:03:14.001Z,0.80
2018-12-30T01:04:14.003Z,2.00
2018-12-30T01:05:35.501Z,1.10
2018-12-30T01:06:14.511Z,1.60
2018-12-30T01:07:20.436Z,1.50
2018-12-30T01:08:14.501Z,2.70
2018-12-30T01:09:16.457Z,2.30
2018-12-30T01:10:15.002Z,1.40
2018-12-30T01:11:15.001Z,1.30
2018-12-30T01:12:40.029Z,1.80
2018-12-30T01:13:15.010Z,1.20
2018-12-30T01:14:17.500Z,1.10
2018-12-30T01:15:14.719Z,1.20
2018-12-30T01:16:15.503Z,1.70
2018-12-30T01:17:15.511Z,1.20
2018-12-30T01:18:25.494Z,2.40
2018-12-30T01:20:47.236Z,1.30
2018-12-30T01:21:47.243Z,1.30
2018-12-30T01:22:47.243Z,0.90
2018-12-30T01:26:56.872Z,0.60
2018-12-30T01:27:54.440Z,0.80
2018-12-30T01:30:29.771Z,0.90
2018-12-30T01:31:29.781Z,1.00
2018-12-30T01:32:32.284Z,1.10
2018-12-30T01:33:30.279Z,0.90
2018-12-30T01:39:30.122Z,0.40
2018-12-30T01:40:14.064Z,1.50
2018-12-30T01:41:09.130Z,0.30
2018-12-30T01:42:30.637Z,1.10
2018-12-30T01:43:30.628Z,0.80
2018-12-30T01:44:09.629Z,0.30
2018-12-30T01:45:09.630Z,0.20
2018-12-30T01:46:18.562Z,0.50
2018-12-30T01:48:41.480Z,0.60
2018-12-30T01:49:41.477Z,0.40
2018-12-30T01:50:41.978Z,0.40
2018-12-30T01:51:45.486Z,1.10
2018-12-30T01:52:41.979Z,0.50
2018-12-30T01:53:41.980Z,0.90
2018-12-30T01:54:42.478Z,0.50
2018-12-30T01:55:41.693Z,1.10
2018-12-30T01:58:17.893Z,1.10
2018-12-30T01:59:17.905Z,0.50
2018-12-30T02:00:17.910Z,0.70
2018-12-30T02:03:15.566Z,1.30
2018-12-30T02:03:49.630Z,0.80
2018-12-30T02:04:49.637Z,0.30
2018-12-30T02:05:50.130Z,1.40
2018-12-30T02:06:51.593Z,1.20
2018-12-30T02:07:50.130Z,1.50
2018-12-30T02:08:53.630Z,0.80
2018-12-30T02:09:53.064Z,0.90
2018-12-30T02:12:21.849Z,0.70
2018-12-30T02:13:21.856Z,1.10
2018-12-30T02:14:46.365Z,1.10
2018-12-30T02:15:22.356Z,0.50
2018-12-30T02:16:43.390Z,0.50
2018-12-30T02:17:43.357Z,1.00
2018-12-30T02:18:22.357Z,0.30
2018-12-30T02:19:26.373Z,0.60
2018-12-30T02:20:43.856Z,0.90
2018-12-30T02:21:24.325Z,1.40
2018-12-30T02:22:22.902Z,1.00
2018-12-30T02:23:45.290Z,1.40
2018-12-30T02:24:47.941Z,0.90
2018-12-30T02:25:23.363Z,0.60
2018-12-30T02:26:24.299Z,0.80
2018-12-30T02:28:55.028Z,0.50
2018-12-30T02:29:59.988Z,1.60
2018-12-30T02:30:55.030Z,0.80
2018-12-30T02:31:55.032Z,0.60
2018-12-30T02:33:17.964Z,1.30
2018-12-30T02:33:55.533Z,1.00
2018-12-30T02:34:59.032Z,1.40
2018-12-30T02:35:55.544Z,2.00
2018-12-30T02:37:17.042Z,1.20
2018-12-30T02:39:27.380Z,0.90
2018-12-30T02:40:30.903Z,0.70
2018-12-30T02:41:28.322Z,0.90
2018-12-30T02:43:59.105Z,1.00
2018-12-30T02:44:59.114Z,0.60
2018-12-30T02:46:02.684Z,0.40
2018-12-30T02:47:20.612Z,0.40
2018-12-30T02:48:20.612Z,0.50
2018-12-30T02:49:20.609Z,0.80
2018-12-30T02:49:59.620Z,1.80
2018-12-30T02:51:24.612Z,0.40
2018-12-30T02:52:02.547Z,0.80
2018-12-30T02:54:33.040Z,0.40
2018-12-30T02:55:31.605Z,0.60
2018-12-30T02:56:34.098Z,0.80
2018-12-30T02:57:53.100Z,0.60
2018-12-30T03:00:03.451Z,0.50
2018-12-30T03:02:38.423Z,1.30
2018-12-30T03:03:34.943Z,0.90
2018-12-30T03:04:55.936Z,0.80
2018-12-30T03:05:35.433Z,2.10
2018-12-30T03:06:35.435Z,2.00
2018-12-30T03:07:39.436Z,0.40
2018-12-30T03:08:35.429Z,0.90
2018-12-30T03:09:56.937Z,1.10
2018-12-30T03:10:36.863Z,0.40
2018-12-30T03:11:35.925Z,0.40
2018-12-30T03:12:35.928Z,0.50
2018-12-30T03:13:39.430Z,0.80
2018-12-30T03:14:36.430Z,1.80
2018-12-30T03:15:57.430Z,1.30
2018-12-30T03:16:37.371Z,1.10
2018-12-30T03:17:36.930Z,1.20
2018-12-30T03:18:40.435Z,0.90
2018-12-30T03:19:36.929Z,0.70
2018-12-30T03:20:36.930Z,1.70
2018-12-30T03:21:36.929Z,1.80
2018-12-30T03:22:37.441Z,1.40
2018-12-30T03:24:01.930Z,0.80
2018-12-30T03:24:37.429Z,1.80
2018-12-30T03:25:37.428Z,2.00
2018-12-30T03:26:58.945Z,0.90
2018-12-30T03:27:37.938Z,1.00
2018-12-30T03:28:37.930Z,2.50
2018-12-30T03:30:02.429Z,1.20
2018-12-30T03:30:38.443Z,2.10
2018-12-30T03:31:59.459Z,1.40
2018-12-30T03:32:38.430Z,0.90
2018-12-30T03:33:38.436Z,1.50
2018-12-30T03:34:44.410Z,1.20
2018-12-30T03:35:38.928Z,1.30
2018-12-30T03:36:38.930Z,1.20
2018-12-30T03:37:38.932Z,3.30
2018-12-30T03:38:39.430Z,3.20
2018-12-30T03:39:39.426Z,4.20
2018-12-30T03:42:35.220Z,2.40
2018-12-30T03:43:14.233Z,1.60
2018-12-30T03:44:14.226Z,2.40
2018-12-30T03:45:35.732Z,1.60
2018-12-30T03:46:18.255Z,2.00
2018-12-30T03:47:14.732Z,2.70
2018-12-30T03:48:35.734Z,2.00
2018-12-30T03:51:07.460Z,2.80
2018-12-30T03:51:49.971Z,2.60
2018-12-30T03:52:46.468Z,3.00
2018-12-30T03:53:50.902Z,4.60
2018-12-30T03:54:46.976Z,2.80
2018-12-30T03:56:07.976Z,2.80
2018-12-30T03:56:51.434Z,3.10
2018-12-30T03:57:47.475Z,4.50
2018-12-30T03:58:47.478Z,3.00
2018-12-30T04:00:08.475Z,5.20
2018-12-30T04:00:47.467Z,2.20
2018-12-30T04:03:47.746Z,4.20
2018-12-30T04:04:43.811Z,2.80
2018-12-30T04:05:43.812Z,4.80
2018-12-30T04:06:22.812Z,4.10
2018-12-30T04:07:26.811Z,5.00
2018-12-30T04:11:26.085Z,6.00
2018-12-30T04:12:30.025Z,4.50
2018-12-30T04:13:27.026Z,5.00
2018-12-30T04:14:26.090Z,5.90
2018-12-30T04:15:26.590Z,4.30
2018-12-30T04:18:01.948Z,4.90
2018-12-30T04:18:58.005Z,5.00
2018-12-30T04:19:57.947Z,5.30
2018-12-30T04:20:58.448Z,6.10
2018-12-30T04:23:54.290Z,6.20
2018-12-30T04:24:29.798Z,6.80
2018-12-30T04:25:29.799Z,6.00
2018-12-30T04:26:37.233Z,6.50
2018-12-30T04:29:05.141Z,5.80
2018-12-30T04:30:01.650Z,4.80
2018-12-30T04:31:01.647Z,7.20
2018-12-30T04:32:02.156Z,4.50
2018-12-30T04:33:02.147Z,7.90
2018-12-30T04:34:06.146Z,5.40
2018-12-30T04:35:02.151Z,5.60
2018-12-30T04:36:02.647Z,6.70
2018-12-30T04:37:25.608Z,7.20
2018-12-30T04:39:37.587Z,6.30
2018-12-30T04:40:34.594Z,8.40
2018-12-30T04:41:34.595Z,8.20
2018-12-30T04:42:56.093Z,8.50
2018-12-30T04:43:36.558Z,6.30
2018-12-30T04:44:39.113Z,6.00
2018-12-30T04:45:35.096Z,7.20
2018-12-30T04:46:56.097Z,8.10
2018-12-30T04:47:35.594Z,6.80
2018-12-30T04:48:56.593Z,8.60
2018-12-30T04:49:35.597Z,8.90
2018-12-30T04:50:42.093Z,9.90
2018-12-30T04:51:36.093Z,6.70
2018-12-30T04:52:57.093Z,9.00
2018-12-30T04:53:57.095Z,4.90
2018-12-30T04:54:36.100Z,7.80
2018-12-30T04:55:36.592Z,7.20
2018-12-30T04:56:40.095Z,7.60
2018-12-30T04:57:57.594Z,5.70
2018-12-30T04:58:36.592Z,9.40
2018-12-30T05:01:29.316Z,7.80
2018-12-30T05:02:11.355Z,5.90
2018-12-30T05:03:08.322Z,7.10
2018-12-30T05:04:09.756Z,6.50
2018-12-30T05:05:08.821Z,7.50
2018-12-30T05:06:08.822Z,6.00
2018-12-30T05:07:12.826Z,8.70
2018-12-30T05:08:09.320Z,7.30
2018-12-30T05:09:09.323Z,6.50
2018-12-30T05:10:09.320Z,6.00
2018-12-30T05:11:09.331Z,5.90
2018-12-30T05:12:09.823Z,7.50
2018-12-30T05:13:13.831Z,7.90
2018-12-30T05:14:30.821Z,8.10
2018-12-30T05:15:09.829Z,4.00
2018-12-30T05:16:10.321Z,7.10
2018-12-30T05:17:10.325Z,8.90
2018-12-30T05:18:11.757Z,6.80
2018-12-30T05:19:34.822Z,9.20
2018-12-30T05:20:11.763Z,7.90
2018-12-30T05:21:10.822Z,5.30
2018-12-30T05:22:10.839Z,5.90
2018-12-30T05:23:31.821Z,7.80
2018-12-30T05:24:14.821Z,6.40
2018-12-30T05:25:33.765Z,6.20
2018-12-30T05:27:42.619Z,5.50
2018-12-30T05:28:42.627Z,6.50
2018-12-30T05:30:09.075Z,10.90
2018-12-30T05:32:14.307Z,6.80
2018-12-30T05:33:15.248Z,8.10
2018-12-30T05:34:14.318Z,6.30
2018-12-30T05:35:39.314Z,9.80
2018-12-30T05:36:14.821Z,8.20
2018-12-30T05:38:47.746Z,8.10
2018-12-30T05:39:50.239Z,8.70
2018-12-30T05:41:10.805Z,8.30
2018-12-30T05:43:18.036Z,7.10
2018-12-30T05:44:18.038Z,11.80
2018-12-30T05:45:18.039Z,10.00
2018-12-30T05:46:22.545Z,6.70
2018-12-30T05:48:49.894Z,7.20
2018-12-30T05:49:49.906Z,9.50
2018-12-30T05:50:49.901Z,8.60
2018-12-30T05:51:53.901Z,6.10
2018-12-30T05:54:21.748Z,8.70
2018-12-30T05:55:21.755Z,7.60
2018-12-30T05:56:21.755Z,6.60
2018-12-30T05:57:25.755Z,11.50
2018-12-30T05:58:50.689Z,9.60
2018-12-30T05:59:22.259Z,6.60
2018-12-30T06:00:43.266Z,10.50
2018-12-30T06:02:57.968Z,6.70
2018-12-30T06:03:53.998Z,8.60
2018-12-30T06:04:55.445Z,12.20
2018-12-30T06:05:54.489Z,9.30
2018-12-30T06:06:54.490Z,10.90
2018-12-30T06:07:58.489Z,10.20
2018-12-30T06:08:54.486Z,6.90
2018-12-30T06:09:54.491Z,9.50
2018-12-30T06:11:15.989Z,10.70
2018-12-30T06:11:54.989Z,10.20
2018-12-30T06:12:54.989Z,8.80
2018-12-30T06:14:19.489Z,9.60
2018-12-30T06:14:55.489Z,7.70
2018-12-30T06:17:26.835Z,10.60
2018-12-30T06:18:26.844Z,7.40
2018-12-30T06:19:30.842Z,9.10
2018-12-30T06:20:27.346Z,9.80
2018-12-30T06:21:27.341Z,11.20
2018-12-30T06:22:27.347Z,7.70
2018-12-30T06:23:27.352Z,6.60
2018-12-30T06:24:27.842Z,7.90
2018-12-30T06:25:30.845Z,6.60
2018-12-30T06:26:27.845Z,10.40
2018-12-30T06:27:27.843Z,8.70
2018-12-30T06:28:28.341Z,7.40
2018-12-30T06:29:29.275Z,12.30
2018-12-30T06:30:52.840Z,8.60
2018-12-30T06:31:28.341Z,9.70
2018-12-30T06:32:28.847Z,10.60
2018-12-30T06:33:28.847Z,9.20
2018-12-30T06:34:29.820Z,8.10
2018-12-30T06:35:28.870Z,8.20
2018-12-30T06:36:32.841Z,8.20
2018-12-30T06:37:29.343Z,8.80
2018-12-30T06:38:29.343Z,7.40
2018-12-30T06:39:29.345Z,9.40
2018-12-30T06:40:29.341Z,8.80
2018-12-30T06:41:54.340Z,7.40
2018-12-30T06:42:32.275Z,9.60
2018-12-30T06:43:29.846Z,7.50
2018-12-30T06:44:29.840Z,9.60
2018-12-30T06:45:30.340Z,7.40
2018-12-30T06:46:30.344Z,6.20
2018-12-30T06:47:54.340Z,10.70
2018-12-30T06:48:30.340Z,10.30
2018-12-30T06:52:37.268Z,10.40
2018-12-30T06:53:34.282Z,7.80
2018-12-30T06:54:34.275Z,9.40
2018-12-30T06:55:34.775Z,10.00
2018-12-30T06:56:36.710Z,8.70
2018-12-30T06:57:38.776Z,6.90
2018-12-30T06:58:34.777Z,5.50
2018-12-30T06:59:35.276Z,10.50
2018-12-30T07:00:35.605Z,10.50
2018-12-30T07:01:36.736Z,9.60
2018-12-30T07:02:35.275Z,9.50
2018-12-30T07:04:02.212Z,8.70
2018-12-30T07:04:37.782Z,9.10
2018-12-30T07:05:35.775Z,8.50
2018-12-30T07:06:35.771Z,7.00
2018-12-30T07:07:35.775Z,6.80
2018-12-30T07:09:00.774Z,11.60
2018-12-30T07:09:36.278Z,6.40
2018-12-30T07:10:36.278Z,7.60
2018-12-30T07:11:36.276Z,9.30
2018-12-30T07:12:36.775Z,9.90
2018-12-30T07:13:38.777Z,10.00
2018-12-30T07:14:40.802Z,6.50
2018-12-30T07:15:36.776Z,9.90
2018-12-30T07:16:38.709Z,8.30
2018-12-30T07:17:37.276Z,9.80
2018-12-30T07:18:37.275Z,10.40
2018-12-30T07:19:37.275Z,8.40
2018-12-30T07:20:40.774Z,6.40
2018-12-30T07:21:37.775Z,6.60
2018-12-30T07:22:37.774Z,10.80
2018-12-30T07:23:37.774Z,8.60
2018-12-30T07:24:38.275Z,9.00
2018-12-30T07:25:41.781Z,8.10
2018-12-30T07:26:38.277Z,10.00
2018-12-30T07:27:38.274Z,7.90
2018-12-30T07:28:38.774Z,8.00
2018-12-30T07:29:38.779Z,9.80
2018-12-30T07:30:39.274Z,11.50
2018-12-30T07:31:42.774Z,7.90
2018-12-30T07:33:01.708Z,8.90
2018-12-30T07:33:39.283Z,6.50
2018-12-30T07:34:39.274Z,7.50
2018-12-30T07:35:39.273Z,8.30
2018-12-30T07:36:39.818Z,8.40
2018-12-30T07:37:42.774Z,9.30
2018-12-30T07:38:39.774Z,10.10
2018-12-30T07:39:41.246Z,8.00
2018-12-30T07:40:39.776Z,7.80
2018-12-30T07:42:01.274Z,7.80
2018-12-30T07:43:05.275Z,6.10
2018-12-30T07:43:40.273Z,5.40
2018-12-30T07:44:40.281Z,8.20
2018-12-30T07:47:33.004Z,7.10
2018-12-30T07:48:15.510Z,5.60
2018-12-30T07:49:33.040Z,6.30
2018-12-30T07:50:33.512Z,9.60
2018-12-30T07:51:33.509Z,9.10
2018-12-30T07:52:12.511Z,6.30
2018-12-30T07:53:14.131Z,7.20
2018-12-30T07:54:16.512Z,7.00
2018-12-30T07:56:45.175Z,6.60
2018-12-30T07:58:07.675Z,5.70
2018-12-30T07:58:44.241Z,6.60
2018-12-30T08:01:19.714Z,5.20
2018-12-30T08:02:19.723Z,8.30
2018-12-30T08:03:19.728Z,10.20
2018-12-30T08:04:41.219Z,7.00
2018-12-30T08:06:57.830Z,6.60
2018-12-30T08:07:55.396Z,7.90
2018-12-30T08:08:55.404Z,8.70
2018-12-30T08:11:31.126Z,5.40
2018-12-30T08:12:48.143Z,8.50
2018-12-30T08:13:27.139Z,5.00
2018-12-30T08:14:27.631Z,8.60
2018-12-30T08:15:27.637Z,5.90
2018-12-30T08:16:27.631Z,5.70
2018-12-30T08:17:31.133Z,7.00
2018-12-30T08:18:28.136Z,4.50
2018-12-30T08:19:28.141Z,7.00
2018-12-30T08:20:28.132Z,7.40
2018-12-30T08:21:28.135Z,8.10
2018-12-30T08:22:32.132Z,7.80
2018-12-30T08:23:28.635Z,7.50
2018-12-30T08:24:28.631Z,7.20
2018-12-30T08:25:28.635Z,7.50
2018-12-30T08:26:29.132Z,6.40
2018-12-30T08:27:32.133Z,8.90
2018-12-30T08:28:29.133Z,8.70
2018-12-30T08:29:29.132Z,7.10
2018-12-30T08:30:29.631Z,10.80
2018-12-30T08:31:29.631Z,7.60
2018-12-30T08:34:04.899Z,7.40
2018-12-30T08:35:04.911Z,7.20
2018-12-30T08:36:04.912Z,6.50
2018-12-30T08:37:05.407Z,4.40
2018-12-30T08:38:08.906Z,7.30
2018-12-30T08:39:05.406Z,6.80
2018-12-30T08:40:05.406Z,8.10
2018-12-30T08:41:07.341Z,6.90
2018-12-30T08:42:26.907Z,8.50
2018-12-30T08:43:30.407Z,7.30
2018-12-30T08:44:05.909Z,8.30
2018-12-30T08:45:06.411Z,7.90
2018-12-30T08:46:06.409Z,5.80
2018-12-30T08:47:06.406Z,4.20
2018-12-30T08:48:11.878Z,6.30
2018-12-30T08:49:27.907Z,10.10
2018-12-30T08:50:27.950Z,6.90
2018-12-30T08:52:38.304Z,8.00
2018-12-30T08:54:02.811Z,5.90
2018-12-30T08:54:38.319Z,5.70
2018-12-30T08:55:59.810Z,6.00
2018-12-30T08:56:40.810Z,6.70
2018-12-30T08:57:38.810Z,6.50
2018-12-30T09:00:15.133Z,5.50
2018-12-30T09:01:15.135Z,6.80
2018-12-30T09:02:15.120Z,3.90
2018-12-30T09:03:15.621Z,6.20
2018-12-30T09:04:41.054Z,7.60
2018-12-30T09:05:15.612Z,5.00
2018-12-30T09:06:15.620Z,7.20
2018-12-30T09:07:16.129Z,4.40
2018-12-30T09:08:16.120Z,6.30
2018-12-30T09:09:20.120Z,3.80
2018-12-30T09:10:16.120Z,5.50
2018-12-30T09:11:18.057Z,3.60
2018-12-30T09:12:16.620Z,4.30
2018-12-30T09:13:16.620Z,5.40
2018-12-30T09:14:16.621Z,7.70
2018-12-30T09:15:20.120Z,6.40
2018-12-30T09:17:48.471Z,4.10
2018-12-30T09:18:48.504Z,5.40
2018-12-30T09:19:48.475Z,3.90
2018-12-30T09:20:52.477Z,3.90
2018-12-30T09:21:48.976Z,5.30
2018-12-30T09:22:48.976Z,3.60
2018-12-30T09:23:48.977Z,4.30
2018-12-30T09:24:49.514Z,2.90
2018-12-30T09:26:15.411Z,4.00
2018-12-30T09:28:20.964Z,2.20
2018-12-30T09:29:20.960Z,5.50
2018-12-30T09:30:20.966Z,4.70
2018-12-30T09:31:49.900Z,4.30
2018-12-30T09:32:21.462Z,4.30
2018-12-30T09:33:21.464Z,3.70
2018-12-30T09:34:21.460Z,4.10
2018-12-30T09:35:42.959Z,3.50
2018-12-30T09:36:25.459Z,3.50
2018-12-30T09:40:45.856Z,3.80
2018-12-30T09:43:00.166Z,6.60
2018-12-30T09:44:00.159Z,4.30
2018-12-30T09:45:00.177Z,6.00
2018-12-30T09:46:21.657Z,4.30
2018-12-30T09:48:35.829Z,4.50
2018-12-30T09:49:35.827Z,2.90
2018-12-30T09:50:35.827Z,4.40
2018-12-30T09:51:36.327Z,4.80
2018-12-30T09:52:39.827Z,3.60
2018-12-30T09:53:36.355Z,3.40
2018-12-30T09:54:36.331Z,5.00
2018-12-30T09:57:08.059Z,2.80
2018-12-30T09:59:43.042Z,4.10
2018-12-30T10:00:43.051Z,3.70
2018-12-30T10:01:43.047Z,3.10
2018-12-30T10:02:43.554Z,2.90
2018-12-30T10:04:08.058Z,3.10
2018-12-30T10:04:43.547Z,5.20
2018-12-30T10:05:43.547Z,4.20
2018-12-30T10:08:15.271Z,3.20
2018-12-30T10:09:19.778Z,4.90
2018-12-30T10:10:15.320Z,4.20
2018-12-30T10:11:37.820Z,4.30
2018-12-30T10:12:17.754Z,3.10
2018-12-30T10:13:15.783Z,4.70
2018-12-30T10:14:15.786Z,3.10
2018-12-30T10:15:19.778Z,4.50
2018-12-30T10:16:16.284Z,6.70
2018-12-30T10:17:16.281Z,7.20
2018-12-30T10:18:16.292Z,3.30
2018-12-30T10:19:37.778Z,4.10
2018-12-30T10:20:41.277Z,4.90
2018-12-30T10:21:16.777Z,4.00
2018-12-30T10:22:18.212Z,4.00
2018-12-30T10:23:21.212Z,3.70
2018-12-30T10:24:19.279Z,3.20
2018-12-30T10:25:38.277Z,4.90
2018-12-30T10:26:20.777Z,3.40
2018-12-30T10:28:49.000Z,4.80
2018-12-30T10:29:49.024Z,3.80
2018-12-30T10:30:49.006Z,2.60
2018-12-30T10:31:52.506Z,4.00
2018-12-30T10:32:49.505Z,4.30
2018-12-30T10:33:49.509Z,3.30
2018-12-30T10:34:49.506Z,4.90
2018-12-30T10:37:53.169Z,4.10
2018-12-30T10:38:21.241Z,4.40
2018-12-30T10:39:21.234Z,2.80
2018-12-30T10:41:52.957Z,6.20
2018-12-30T10:44:28.220Z,3.20
2018-12-30T10:45:28.216Z,5.80
2018-12-30T10:46:28.213Z,5.10
2018-12-30T10:47:28.796Z,3.80
2018-12-30T10:48:32.723Z,4.80
2018-12-30T10:49:28.718Z,2.50
2018-12-30T10:50:28.715Z,5.70
2018-12-30T10:51:28.736Z,5.50
2018-12-30T10:52:29.215Z,3.60
2018-12-30T10:54:00.512Z,3.40
2018-12-30T10:54:29.215Z,2.90
2018-12-30T10:55:29.215Z,3.50
2018-12-30T10:56:50.715Z,4.70
2018-12-30T10:57:29.733Z,2.60
2018-12-30T10:58:29.718Z,3.20
2018-12-30T10:59:33.726Z,4.40
2018-12-30T11:02:01.440Z,3.00
2018-12-30T11:03:22.513Z,3.40
2018-12-30T11:04:01.457Z,4.50
2018-12-30T11:05:25.442Z,4.40
2018-12-30T11:06:01.945Z,4.50
2018-12-30T11:07:22.942Z,5.90
2018-12-30T11:08:03.454Z,3.60
2018-12-30T11:10:36.679Z,4.30
2018-12-30T11:11:33.686Z,6.10
2018-12-30T11:12:33.685Z,2.70
2018-12-30T11:13:34.193Z,5.40
2018-12-30T11:14:34.186Z,4.00
2018-12-30T11:15:38.190Z,2.30
2018-12-30T11:16:34.186Z,3.00
2018-12-30T11:17:34.697Z,4.00
2018-12-30T11:20:27.035Z,2.70
2018-12-30T11:22:41.011Z,3.10
2018-12-30T11:23:41.032Z,4.80
2018-12-30T11:24:41.007Z,3.60
2018-12-30T11:27:18.208Z,3.30
2018-12-30T11:28:33.739Z,4.30
2018-12-30T11:29:12.741Z,5.30
2018-12-30T11:30:34.254Z,2.80
2018-12-30T11:31:34.240Z,2.80
2018-12-30T11:32:13.239Z,1.60
2018-12-30T11:33:17.678Z,2.70
2018-12-30T11:34:34.748Z,4.10
2018-12-30T11:35:34.739Z,1.60
2018-12-30T11:36:34.740Z,2.40
2018-12-30T11:37:13.742Z,2.90
2018-12-30T11:38:17.734Z,2.70
2018-12-30T11:39:35.238Z,2.30
2018-12-30T11:40:35.246Z,2.60
2018-12-30T11:41:15.713Z,1.90
2018-12-30T11:42:35.738Z,2.80
2018-12-30T11:43:39.248Z,2.60
2018-12-30T11:44:35.745Z,3.20
2018-12-30T11:45:14.739Z,3.20
2018-12-30T11:46:36.239Z,4.30
2018-12-30T11:48:50.593Z,6.00
2018-12-30T11:49:46.605Z,4.60
2018-12-30T11:50:46.600Z,2.40
2018-12-30T11:53:39.337Z,1.70
2018-12-30T11:55:53.587Z,2.10
2018-12-30T11:56:53.580Z,1.50
2018-12-30T11:57:53.573Z,2.60
2018-12-30T12:00:28.300Z,1.80
2018-12-30T12:01:25.317Z,2.60
2018-12-30T12:02:47.240Z,3.00
2018-12-30T12:03:25.806Z,2.20
2018-12-30T12:04:27.807Z,2.30
2018-12-30T12:05:29.306Z,2.40
2018-12-30T12:06:25.806Z,2.30
2018-12-30T12:07:26.304Z,3.70
2018-12-30T12:08:30.242Z,2.70
2018-12-30T12:09:26.321Z,2.60
2018-12-30T12:12:01.992Z,3.50
2018-12-30T12:13:22.997Z,3.10
2018-12-30T12:14:01.997Z,2.80
2018-12-30T12:16:39.823Z,2.20
2018-12-30T12:17:33.726Z,3.40
2018-12-30T12:18:35.193Z,4.00
2018-12-30T12:19:39.160Z,2.70
2018-12-30T12:20:34.228Z,3.10
2018-12-30T12:21:34.226Z,3.40
2018-12-30T12:22:37.726Z,2.70
2018-12-30T12:23:34.741Z,2.90
2018-12-30T12:24:35.664Z,2.80
2018-12-30T12:25:34.725Z,2.40
2018-12-30T12:26:57.160Z,2.10
2018-12-30T12:27:39.660Z,2.80
2018-12-30T12:28:36.160Z,3.10
2018-12-30T12:29:56.246Z,1.60
2018-12-30T12:30:35.226Z,2.40
2018-12-30T12:33:10.449Z,1.90
2018-12-30T12:34:06.955Z,3.40
2018-12-30T12:35:06.962Z,2.00
2018-12-30T12:36:07.476Z,2.70
2018-12-30T12:37:07.459Z,2.10
2018-12-30T12:38:11.459Z,1.60
2018-12-30T12:39:07.460Z,2.10
2018-12-30T12:40:28.959Z,2.50
2018-12-30T12:41:09.394Z,2.30
2018-12-30T12:42:28.979Z,2.60
2018-12-30T12:43:32.961Z,2.60
2018-12-30T12:44:08.483Z,2.10
2018-12-30T12:45:08.463Z,2.90
2018-12-30T12:46:08.461Z,2.60
2018-12-30T12:47:08.459Z,2.70
2018-12-30T12:48:11.393Z,2.00
2018-12-30T12:49:14.397Z,2.50
2018-12-30T12:50:08.959Z,5.60
2018-12-30T12:51:08.986Z,2.40
2018-12-30T12:52:09.459Z,2.30
2018-12-30T12:53:30.460Z,2.70
2018-12-30T12:54:09.459Z,3.40
2018-12-30T12:55:34.972Z,2.60
2018-12-30T12:56:09.962Z,3.50
2018-12-30T12:57:09.959Z,3.00
2018-12-30T12:58:09.959Z,1.20
2018-12-30T12:59:09.958Z,1.80
2018-12-30T13:00:34.959Z,2.20
2018-12-30T13:01:10.460Z,2.90
2018-12-30T13:02:10.478Z,2.90
2018-12-30T13:03:10.459Z,3.50
2018-12-30T13:09:10.355Z,3.50
2018-12-30T13:09:49.351Z,2.60
2018-12-30T13:12:24.126Z,2.10
2018-12-30T13:13:45.133Z,2.10
2018-12-30T13:14:24.135Z,2.00
2018-12-30T13:15:46.020Z,1.80
2018-12-30T13:16:29.593Z,2.60
2018-12-30T13:17:24.634Z,1.90
2018-12-30T13:18:24.635Z,1.60
2018-12-30T13:19:24.642Z,2.20
2018-12-30T13:20:25.134Z,1.50
2018-12-30T13:21:49.659Z,2.70
2018-12-30T13:22:25.133Z,1.80
2018-12-30T13:23:46.140Z,1.40
2018-12-30T13:24:25.638Z,1.80
2018-12-30T13:25:46.641Z,2.00
2018-12-30T13:26:25.637Z,2.50
2018-12-30T13:29:23.871Z,1.70
2018-12-30T13:30:22.436Z,2.20
2018-12-30T13:31:01.434Z,3.30
2018-12-30T13:32:22.937Z,2.20
2018-12-30T13:33:25.936Z,4.30
2018-12-30T13:34:22.945Z,2.90
2018-12-30T13:35:01.942Z,1.80
2018-12-30T13:36:02.458Z,2.80
2018-12-30T13:37:23.441Z,2.20
2018-12-30T13:39:37.738Z,2.40
2018-12-30T13:40:58.752Z,3.70
2018-12-30T13:41:37.748Z,2.50
2018-12-30T13:42:38.265Z,2.80
2018-12-30T13:43:43.199Z,4.10
2018-12-30T13:44:38.245Z,1.50
2018-12-30T13:46:00.205Z,1.50
2018-12-30T13:46:38.250Z,1.40
2018-12-30T13:47:38.245Z,0.80
2018-12-30T13:48:38.745Z,3.50
2018-12-30T13:49:41.771Z,2.50
2018-12-30T13:50:38.745Z,3.50
2018-12-30T13:51:59.745Z,1.70
2018-12-30T13:52:41.245Z,3.30
2018-12-30T13:53:39.244Z,2.10
2018-12-30T13:54:47.674Z,1.90
2018-12-30T13:55:39.293Z,3.00
2018-12-30T13:57:02.202Z,2.80
2018-12-30T13:57:39.745Z,2.80
2018-12-30T13:58:39.747Z,1.90
2018-12-30T14:00:39.745Z,3.20
2018-12-30T14:03:11.490Z,2.10
2018-12-30T14:04:11.485Z,1.40
2018-12-30T14:05:35.977Z,2.20
2018-12-30T14:06:11.979Z,1.90
2018-12-30T14:07:11.984Z,2.20
2018-12-30T14:08:11.985Z,4.80
2018-12-30T14:09:11.976Z,1.70
2018-12-30T14:10:37.912Z,2.20
2018-12-30T14:11:33.478Z,1.70
2018-12-30T14:12:33.478Z,2.30
2018-12-30T14:13:12.478Z,1.20
2018-12-30T14:16:08.709Z,1.50
2018-12-30T14:16:44.228Z,2.40
2018-12-30T14:17:44.209Z,1.60
2018-12-30T14:20:36.938Z,2.10
2018-12-30T14:21:20.442Z,2.10
2018-12-30T14:22:37.445Z,1.90
2018-12-30T14:24:55.128Z,2.70
2018-12-30T14:26:08.857Z,1.60
2018-12-30T14:26:59.521Z,1.70
2018-12-30T14:27:48.306Z,2.70
2018-12-30T14:28:48.305Z,2.60
2018-12-30T14:29:48.306Z,3.30
2018-12-30T14:30:48.324Z,2.60
2018-12-30T14:32:19.305Z,1.30
2018-12-30T14:32:48.807Z,1.70
2018-12-30T14:33:48.815Z,4.50
2018-12-30T14:34:48.807Z,3.90
2018-12-30T14:37:25.989Z,3.80
2018-12-30T14:38:20.536Z,2.60
2018-12-30T14:39:20.540Z,2.40
2018-12-30T14:40:42.037Z,2.70
2018-12-30T14:43:16.892Z,2.60
2018-12-30T14:45:23.889Z,3.20
2018-12-30T14:46:23.881Z,2.70
2018-12-30T14:47:23.880Z,2.30
2018-12-30T14:48:27.878Z,3.60
2018-12-30T14:49:24.380Z,1.60
2018-12-30T14:50:24.435Z,2.80
2018-12-30T14:51:24.400Z,2.10
2018-12-30T14:52:24.880Z,1.90
2018-12-30T14:53:24.879Z,3.20
2018-12-30T14:54:28.882Z,1.40
2018-12-30T14:55:24.882Z,3.30
2018-12-30T14:56:25.382Z,2.90
2018-12-30T14:57:25.400Z,3.40
2018-12-30T14:58:25.385Z,1.30
2018-12-30T14:59:25.379Z,2.90
2018-12-30T15:00:29.880Z,2.00
2018-12-30T15:02:57.236Z,3.40
2018-12-30T15:05:31.722Z,1.80
2018-12-30T15:08:00.179Z,2.00
2018-12-30T15:09:00.189Z,1.70
2018-12-30T15:10:00.203Z,2.70
2018-12-30T15:12:35.950Z,1.50
2018-12-30T15:13:35.939Z,3.10
2018-12-30T15:14:35.935Z,2.50
2018-12-30T15:15:36.438Z,2.50
2018-12-30T15:16:39.941Z,2.60
2018-12-30T15:17:57.456Z,2.20
2018-12-30T15:18:36.453Z,2.40
2018-12-30T15:19:36.935Z,2.40
2018-12-30T15:20:36.935Z,5.30
2018-12-30T15:22:01.435Z,2.90
2018-12-30T15:22:36.949Z,2.40
2018-12-30T15:23:37.442Z,4.10
2018-12-30T15:26:08.805Z,3.80
2018-12-30T15:27:12.791Z,2.40
2018-12-30T15:28:08.790Z,3.20
2018-12-30T15:29:09.289Z,2.10
2018-12-30T15:30:10.223Z,1.40
2018-12-30T15:31:09.339Z,3.00
2018-12-30T15:32:09.318Z,1.80
2018-12-30T15:33:12.794Z,3.10
2018-12-30T15:34:09.789Z,3.10
2018-12-30T15:35:09.789Z,3.40
2018-12-30T15:36:09.789Z,3.40
2018-12-30T15:37:10.314Z,2.70
2018-12-30T15:39:45.480Z,2.80
2018-12-30T15:40:45.464Z,3.20
2018-12-30T15:41:45.462Z,3.80
2018-12-30T15:42:45.967Z,3.40
2018-12-30T15:44:10.495Z,2.80
2018-12-30T15:45:06.963Z,3.50